createdAt,value
2022-11-28T00:01:30.296Z,100613.06
2022-11-28T00:03:33.931Z,100608.81
2022-11-28T00:05:37.346Z,100596.69
2022-11-28T00:07:42.240Z,100588.78
2022-11-28T00:09:45.622Z,100589.13
2022-11-28T00:11:50.254Z,100589.16
2022-11-28T00:13:53.863Z,100595.19
2022-11-28T00:15:57.716Z,100557.41
2022-11-28T00:18:01.071Z,100589.50
2022-11-28T00:20:05.359Z,100578.00
2022-11-28T00:22:08.627Z,100579.78
2022-11-28T00:24:13.341Z,100581.34
2022-11-28T00:26:20.256Z,100584.88
2022-11-28T00:28:23.605Z,100584.84
2022-11-28T00:30:27.011Z,100561.28
2022-11-28T00:32:31.706Z,100585.75
2022-11-28T00:34:35.363Z,100576.94
2022-11-28T00:36:38.664Z,100571.63
2022-11-28T00:38:42.785Z,100570.09
2022-11-28T00:40:47.616Z,100566.84
2022-11-28T00:42:50.876Z,100563.22
2022-11-28T00:44:54.196Z,100561.44
2022-11-28T00:46:57.632Z,100553.81
2022-11-28T00:49:02.437Z,100542.03
2022-11-28T00:51:09.917Z,100554.53
2022-11-28T00:53:13.292Z,100549.13
2022-11-28T00:55:16.711Z,100544.63
2022-11-28T00:57:21.566Z,100544.75
2022-11-28T00:59:25.031Z,100538.78
2022-11-28T01:01:30.776Z,100538.97
2022-11-28T01:03:34.337Z,100524.25
2022-11-28T01:05:42.085Z,100524.94
2022-11-28T01:07:46.082Z,100528.28
2022-11-28T01:09:49.432Z,100532.03
2022-11-28T01:11:54.953Z,100527.66
2022-11-28T01:14:01.737Z,100524.88
2022-11-28T01:16:05.326Z,100528.50
2022-11-28T01:18:09.126Z,100532.97
2022-11-28T01:20:13.666Z,100532.28
2022-11-28T01:22:17.284Z,100531.50
2022-11-28T01:24:20.660Z,100528.28
2022-11-28T01:26:26.411Z,100527.41
2022-11-28T01:28:29.974Z,100524.06
2022-11-28T01:30:35.147Z,100529.22
2022-11-28T01:32:39.290Z,100523.25
2022-11-28T01:34:43.063Z,100518.13
2022-11-28T01:36:46.584Z,100510.63
2022-11-28T01:38:50.705Z,100507.00
2022-11-28T01:40:55.225Z,100496.69
2022-11-28T01:42:58.731Z,100484.41
2022-11-28T01:45:09.402Z,100503.47
2022-11-28T01:47:15.872Z,100499.13
2022-11-28T01:49:23.738Z,100498.53
2022-11-28T01:51:27.669Z,100497.84
2022-11-28T01:53:34.141Z,100499.53
2022-11-28T01:55:42.098Z,100493.31
2022-11-28T01:57:45.634Z,100486.66
2022-11-28T01:59:57.339Z,100478.81
2022-11-28T02:02:00.727Z,100477.19
2022-11-28T02:04:06.277Z,100471.78
2022-11-28T02:06:10.857Z,100470.34
2022-11-28T02:08:14.287Z,100465.75
2022-11-28T02:10:21.430Z,100467.59
2022-11-28T02:12:37.420Z,100464.81
2022-11-28T02:15:14.105Z,100448.34
2022-11-28T02:17:26.018Z,100450.81
2022-11-28T02:20:05.034Z,100442.28
2022-11-28T02:22:15.554Z,100447.13
2022-11-28T02:25:04.873Z,100455.78
2022-11-28T02:27:38.281Z,100458.59
2022-11-28T02:30:07.419Z,100451.75
2022-11-28T02:32:21.053Z,100439.94
2022-11-28T02:34:29.770Z,100466.28
2022-11-28T02:36:40.228Z,100464.69
2022-11-28T02:38:53.801Z,100473.28
2022-11-28T02:41:02.437Z,100475.97
2022-11-28T02:43:15.150Z,100470.69
2022-11-28T02:45:25.066Z,100468.94
2022-11-28T02:47:34.909Z,100467.09
2022-11-28T02:49:45.897Z,100460.44
2022-11-28T02:51:55.581Z,100457.09
2022-11-28T02:54:01.204Z,100449.28
2022-11-28T02:56:05.946Z,100442.44
2022-11-28T02:58:11.287Z,100440.56
2022-11-28T03:00:28.312Z,100447.94
2022-11-28T03:02:35.559Z,100436.72
2022-11-28T03:04:49.124Z,100439.44
2022-11-28T03:07:04.767Z,100453.13
2022-11-28T03:09:27.945Z,100451.38
2022-11-28T03:11:47.405Z,100454.09
2022-11-28T03:13:55.762Z,100459.28
2022-11-28T03:16:07.350Z,100458.69
2022-11-28T03:18:19.302Z,100424.16
2022-11-28T03:20:29.606Z,100459.56
2022-11-28T03:22:41.217Z,100457.03
2022-11-28T03:24:47.805Z,100449.31
2022-11-28T03:26:57.424Z,100447.47
2022-11-28T03:29:07.236Z,100431.84
2022-11-28T03:31:14.950Z,100429.91
2022-11-28T03:33:22.232Z,100427.34
2022-11-28T03:35:30.151Z,100427.50
2022-11-28T03:37:39.049Z,100433.50
2022-11-28T03:39:46.760Z,100421.25
2022-11-28T03:41:55.421Z,100424.59
2022-11-28T03:44:01.866Z,100410.84
2022-11-28T03:46:09.060Z,100418.66
2022-11-28T03:48:17.524Z,100400.38
2022-11-28T03:50:27.907Z,100404.81
2022-11-28T03:52:35.823Z,100394.06
2022-11-28T03:54:47.095Z,100415.75
2022-11-28T03:56:58.312Z,100418.97
2022-11-28T03:59:08.927Z,100422.78
2022-11-28T04:01:18.335Z,100420.19
2022-11-28T04:03:28.187Z,100419.09
2022-11-28T04:05:42.766Z,100419.22
2022-11-28T04:07:49.764Z,100421.78
2022-11-28T04:10:05.413Z,100433.00
2022-11-28T04:12:15.867Z,100417.66
2022-11-28T04:14:24.529Z,100420.44
2022-11-28T04:16:36.034Z,100418.66
2022-11-28T04:18:50.143Z,100416.84
2022-11-28T04:21:01.241Z,100414.81
2022-11-28T04:23:09.213Z,100413.16
2022-11-28T04:25:16.295Z,100416.03
2022-11-28T04:27:24.747Z,100413.25
2022-11-28T04:29:33.932Z,100419.31
2022-11-28T04:31:38.558Z,100418.34
2022-11-28T04:33:45.590Z,100412.22
2022-11-28T04:35:52.670Z,100404.41
2022-11-28T04:38:00.726Z,100407.81
2022-11-28T04:40:06.707Z,100415.34
2022-11-28T04:42:14.796Z,100410.22
2022-11-28T04:44:24.117Z,100402.63
2022-11-28T04:46:33.477Z,100406.16
2022-11-28T04:48:37.672Z,100436.41
2022-11-28T04:50:47.345Z,100439.00
2022-11-28T04:52:59.958Z,100415.25
2022-11-28T04:55:09.798Z,100436.53
2022-11-28T04:57:16.733Z,100431.16
2022-11-28T04:59:23.137Z,100414.03
2022-11-28T05:01:30.233Z,100425.28
2022-11-28T05:03:35.290Z,100425.53
2022-11-28T05:05:47.805Z,100426.94
2022-11-28T05:07:52.655Z,100436.53
2022-11-28T05:09:57.952Z,100431.59
2022-11-28T05:12:01.644Z,100445.22
2022-11-28T05:14:05.272Z,100455.66
2022-11-28T05:16:08.940Z,100453.97
2022-11-28T05:18:12.377Z,100446.13
2022-11-28T05:20:16.868Z,100452.28
2022-11-28T05:22:20.288Z,100455.09
2022-11-28T05:24:25.758Z,100453.56
2022-11-28T05:26:35.377Z,100448.59
2022-11-28T05:28:38.754Z,100443.28
2022-11-28T05:30:42.240Z,100440.97
2022-11-28T05:32:45.563Z,100439.97
2022-11-28T05:34:49.451Z,100444.03
2022-11-28T05:36:52.839Z,100446.31
2022-11-28T05:38:56.931Z,100460.88
2022-11-28T05:41:00.905Z,100454.00
2022-11-28T05:43:05.568Z,100405.44
2022-11-28T05:45:10.206Z,100450.75
2022-11-28T05:47:13.650Z,100447.34
2022-11-28T05:49:17.288Z,100440.50
2022-11-28T05:51:20.811Z,100429.09
2022-11-28T05:53:24.403Z,100432.53
2022-11-28T05:55:28.134Z,100408.13
2022-11-28T05:57:33.255Z,100420.72
2022-11-28T05:59:38.207Z,100416.66
2022-11-28T06:01:41.718Z,100419.97
2022-11-28T06:03:46.077Z,100395.81
2022-11-28T06:05:49.498Z,100418.91
2022-11-28T06:07:53.307Z,100415.91
2022-11-28T06:09:56.633Z,100426.75
2022-11-28T06:11:59.947Z,100418.34
2022-11-28T06:14:03.999Z,100417.66
2022-11-28T06:16:11.060Z,100422.69
2022-11-28T06:18:15.022Z,100409.88
2022-11-28T06:20:20.575Z,100413.34
2022-11-28T06:22:23.994Z,100389.94
2022-11-28T06:24:27.723Z,100407.03
2022-11-28T06:26:31.374Z,100409.63
2022-11-28T06:28:35.543Z,100413.75
2022-11-28T06:30:38.904Z,100406.94
2022-11-28T06:32:43.630Z,100394.66
2022-11-28T06:34:46.966Z,100395.56
2022-11-28T06:36:50.707Z,100387.78
2022-11-28T06:38:54.219Z,100391.19
2022-11-28T06:40:58.756Z,100395.56
2022-11-28T06:43:02.169Z,100398.97
2022-11-28T06:45:06.483Z,100405.03
2022-11-28T06:47:10.064Z,100385.53
2022-11-28T06:49:20.722Z,100404.00
2022-11-28T06:51:24.597Z,100403.28
2022-11-28T06:53:31.454Z,100416.16
2022-11-28T06:55:35.198Z,100418.94
2022-11-28T06:57:39.255Z,100417.09
2022-11-28T06:59:42.853Z,100411.97
2022-11-28T07:01:46.676Z,100417.22
2022-11-28T07:03:51.534Z,100415.59
2022-11-28T07:05:57.026Z,100418.16
2022-11-28T07:08:02.145Z,100419.94
2022-11-28T07:10:07.522Z,100426.88
2022-11-28T07:12:11.045Z,100431.44
2022-11-28T07:14:14.404Z,100434.03
2022-11-28T07:16:20.438Z,100435.00
2022-11-28T07:18:23.811Z,100437.59
2022-11-28T07:20:27.276Z,100435.97
2022-11-28T07:22:31.992Z,100436.78
2022-11-28T07:24:35.545Z,100442.84
2022-11-28T07:26:39.068Z,100441.03
2022-11-28T07:28:43.730Z,100444.63
2022-11-28T07:30:47.089Z,100438.44
2022-11-28T07:32:50.884Z,100433.31
2022-11-28T07:34:54.387Z,100440.25
2022-11-28T07:36:57.805Z,100442.03
2022-11-28T07:39:04.659Z,100442.56
2022-11-28T07:41:09.768Z,100441.38
2022-11-28T07:43:13.348Z,100438.56
2022-11-28T07:45:16.862Z,100428.56
2022-11-28T07:47:20.304Z,100437.59
2022-11-28T07:49:23.897Z,100438.56
2022-11-28T07:51:31.496Z,100435.00
2022-11-28T07:53:35.007Z,100428.78
2022-11-28T07:55:39.957Z,100429.53
2022-11-28T07:57:43.690Z,100422.25
2022-11-28T07:59:47.146Z,100435.47
2022-11-28T08:01:50.724Z,100439.00
2022-11-28T08:03:55.183Z,100439.78
2022-11-28T08:06:03.074Z,100441.72
2022-11-28T08:08:07.193Z,100432.38
2022-11-28T08:10:11.016Z,100441.97
2022-11-28T08:12:18.096Z,100425.59
2022-11-28T08:14:21.411Z,100433.38
2022-11-28T08:16:26.519Z,100418.50
2022-11-28T08:18:29.935Z,100436.13
2022-11-28T08:20:33.489Z,100438.81
2022-11-28T08:22:37.002Z,100427.34
2022-11-28T08:24:41.137Z,100439.59
2022-11-28T08:26:44.757Z,100444.75
2022-11-28T08:28:50.649Z,100437.97
2022-11-28T08:30:54.641Z,100445.78
2022-11-28T08:32:58.312Z,100445.88
2022-11-28T08:35:01.681Z,100425.38
2022-11-28T08:37:05.220Z,100444.09
2022-11-28T08:39:23.572Z,100446.94
2022-11-28T08:41:28.214Z,100442.00
2022-11-28T08:43:31.629Z,100440.16
2022-11-28T08:45:38.008Z,100440.06
2022-11-28T08:47:41.699Z,100434.19
2022-11-28T08:49:45.471Z,100435.03
2022-11-28T08:51:48.984Z,100450.66
2022-11-28T08:53:59.080Z,100431.06
2022-11-28T08:56:03.611Z,100450.75
2022-11-28T08:58:06.933Z,100443.66
2022-11-28T09:00:11.568Z,100455.13
2022-11-28T09:02:16.314Z,100448.19
2022-11-28T09:04:19.664Z,100451.06
2022-11-28T09:06:24.948Z,100411.31
2022-11-28T09:08:28.342Z,100449.19
2022-11-28T09:10:31.710Z,100447.84
2022-11-28T09:12:35.014Z,100453.22
2022-11-28T09:14:38.856Z,100445.16
2022-11-28T09:16:42.803Z,100465.09
2022-11-28T09:18:47.819Z,100458.41
2022-11-28T09:20:51.149Z,100463.41
2022-11-28T09:22:54.467Z,100460.13
2022-11-28T09:24:57.728Z,100461.38
2022-11-28T09:27:01.178Z,100475.22
2022-11-28T09:29:04.597Z,100471.03
2022-11-28T09:31:08.876Z,100420.50
2022-11-28T09:33:13.383Z,100479.41
2022-11-28T09:35:18.651Z,100483.41
2022-11-28T09:37:22.106Z,100472.81
2022-11-28T09:39:25.432Z,100476.56
2022-11-28T09:41:52.403Z,100476.38
2022-11-28T09:44:00.193Z,100479.97
2022-11-28T09:46:08.671Z,100464.28
2022-11-28T09:48:25.747Z,100477.63
2022-11-28T09:50:35.254Z,100474.41
2022-11-28T09:52:45.072Z,100458.00
2022-11-28T09:54:53.480Z,100471.47
2022-11-28T09:56:58.134Z,100464.84
2022-11-28T09:59:04.098Z,100455.84
2022-11-28T10:01:16.716Z,100478.84
2022-11-28T10:03:37.215Z,100471.28
2022-11-28T10:05:49.585Z,100473.09
2022-11-28T10:08:06.964Z,100480.88
2022-11-28T10:10:20.371Z,100475.69
2022-11-28T10:12:41.353Z,100472.28
2022-11-28T10:15:20.035Z,100475.75
2022-11-28T10:17:35.198Z,100473.16
2022-11-28T10:19:54.300Z,100468.13
2022-11-28T10:22:03.625Z,100471.63
2022-11-28T10:24:14.865Z,100473.66
2022-11-28T10:26:30.071Z,100464.66
2022-11-28T10:28:37.106Z,100470.31
2022-11-28T10:30:43.945Z,100470.00
2022-11-28T10:32:57.305Z,100469.13
2022-11-28T10:35:05.459Z,100466.28
2022-11-28T10:37:16.975Z,100465.38
2022-11-28T10:39:20.361Z,100466.28
2022-11-28T10:41:28.728Z,100474.69
2022-11-28T10:43:41.221Z,100470.56
2022-11-28T10:45:53.504Z,100476.88
2022-11-28T10:48:38.581Z,100467.41
2022-11-28T10:50:48.314Z,100468.31
2022-11-28T10:53:01.348Z,100471.69
2022-11-28T10:55:28.981Z,100466.53
2022-11-28T10:57:41.211Z,100468.25
2022-11-28T10:59:57.597Z,100464.03
2022-11-28T11:02:04.968Z,100466.78
2022-11-28T11:04:13.969Z,100464.91
2022-11-28T11:06:17.539Z,100470.38
2022-11-28T11:08:24.294Z,100460.22
2022-11-28T11:10:31.691Z,100461.19
2022-11-28T11:12:35.673Z,100468.22
2022-11-28T11:14:40.842Z,100466.53
2022-11-28T11:16:52.383Z,100470.00
2022-11-28T11:18:56.507Z,100451.63
2022-11-28T11:21:15.720Z,100464.78
2022-11-28T11:23:20.987Z,100463.94
2022-11-28T11:25:27.094Z,100454.50
2022-11-28T11:27:31.843Z,100458.69
2022-11-28T11:29:36.721Z,100464.50
2022-11-28T11:31:44.823Z,100465.41
2022-11-28T11:33:49.844Z,100461.78
2022-11-28T11:35:53.585Z,100459.88
2022-11-28T11:38:16.800Z,100470.25
2022-11-28T11:40:26.908Z,100470.09
2022-11-28T11:42:32.183Z,100468.47
2022-11-28T11:44:35.861Z,100475.44
2022-11-28T11:46:52.044Z,100469.47
2022-11-28T11:48:55.686Z,100463.47
2022-11-28T11:50:59.381Z,100471.44
2022-11-28T11:53:08.080Z,100471.47
2022-11-28T11:55:15.502Z,100467.97
2022-11-28T11:57:32.989Z,100473.75
2022-11-28T11:59:42.683Z,100471.31
2022-11-28T12:01:50.763Z,100458.97
2022-11-28T12:03:57.988Z,100472.19
2022-11-28T12:06:15.453Z,100462.56
2022-11-28T12:08:31.843Z,100465.66
2022-11-28T12:10:41.144Z,100475.09
2022-11-28T12:12:46.009Z,100472.59
2022-11-28T12:14:51.147Z,100469.22
2022-11-28T12:17:25.573Z,100467.97
2022-11-28T12:19:36.935Z,100462.78
2022-11-28T12:21:51.743Z,100467.06
2022-11-28T12:24:11.128Z,100433.50
2022-11-28T12:26:23.163Z,100462.81
2022-11-28T12:28:43.405Z,100465.38
2022-11-28T12:30:59.674Z,100452.94
2022-11-28T12:33:20.556Z,100464.03
2022-11-28T12:35:33.174Z,100461.28
2022-11-28T12:40:20.882Z,100461.63
2022-11-28T12:42:35.891Z,100464.09
2022-11-28T12:45:04.765Z,100469.72
2022-11-28T12:47:15.821Z,100470.94
2022-11-28T12:49:25.244Z,100462.16
2022-11-28T12:51:40.970Z,100463.97
2022-11-28T12:54:02.729Z,100464.09
2022-11-28T12:56:30.807Z,100461.34
2022-11-28T12:58:41.258Z,100463.34
2022-11-28T13:00:54.811Z,100460.75
2022-11-28T13:03:11.144Z,100461.84
2022-11-28T13:05:32.395Z,100468.75
2022-11-28T13:07:44.322Z,100467.91
2022-11-28T13:10:01.632Z,100459.84
2022-11-28T13:12:20.433Z,100464.97
2022-11-28T13:14:34.625Z,100466.88
2022-11-28T13:16:46.652Z,100470.38
2022-11-28T13:18:55.528Z,100467.84
2022-11-28T13:21:05.103Z,100465.16
2022-11-28T13:23:15.807Z,100462.69
2022-11-28T13:25:29.808Z,100466.25
2022-11-28T13:27:40.465Z,100467.19
2022-11-28T13:29:54.276Z,100464.56
2022-11-28T13:32:06.231Z,100468.75
2022-11-28T13:34:16.248Z,100473.16
2022-11-28T13:39:11.623Z,100471.34
2022-11-28T13:41:43.860Z,100462.59
2022-11-28T13:43:53.344Z,100470.59
2022-11-28T13:45:57.239Z,100471.75
2022-11-28T13:51:21.744Z,100470.97
2022-11-28T13:53:27.671Z,100413.69
2022-11-28T13:55:40.502Z,100465.78
2022-11-28T13:57:43.874Z,100466.84
2022-11-28T13:59:51.711Z,100468.88
2022-11-28T14:02:00.597Z,100450.38
2022-11-28T14:04:09.754Z,100462.84
2022-11-28T14:06:17.717Z,100471.16
2022-11-28T14:08:33.230Z,100471.00
2022-11-28T14:10:52.537Z,100466.84
2022-11-28T14:13:22.806Z,100465.69
2022-11-28T14:15:31.641Z,100472.81
2022-11-28T14:18:00.541Z,100458.84
2022-11-28T14:20:17.322Z,100466.66
2022-11-28T14:22:35.315Z,100468.41
2022-11-28T14:24:55.216Z,100460.78
2022-11-28T14:27:01.894Z,100462.41
2022-11-28T14:29:19.132Z,100475.56
2022-11-28T14:31:31.614Z,100468.69
2022-11-28T14:33:39.148Z,100473.03
2022-11-28T14:36:07.572Z,100483.28
2022-11-28T14:38:47.276Z,100478.84
2022-11-28T14:41:02.969Z,100490.97
2022-11-28T14:43:28.837Z,100498.72
2022-11-28T14:45:45.554Z,100491.88
2022-11-28T14:48:15.405Z,100491.22
2022-11-28T14:50:46.956Z,100496.41
2022-11-28T14:53:31.064Z,100495.56
2022-11-28T14:55:37.456Z,100497.25
2022-11-28T14:57:52.611Z,100502.66
2022-11-28T14:59:59.565Z,100507.06
2022-11-28T15:02:17.775Z,100512.34
2022-11-28T15:04:49.764Z,100498.38
2022-11-28T15:06:56.676Z,100506.94
2022-11-28T15:09:08.082Z,100500.84
2022-11-28T15:11:45.326Z,100503.47
2022-11-28T15:14:06.040Z,100509.56
2022-11-28T15:16:13.917Z,100508.53
2022-11-28T15:18:18.753Z,100497.91
2022-11-28T15:20:27.763Z,100517.13
2022-11-28T15:22:33.999Z,100511.91
2022-11-28T15:24:39.233Z,100516.28
2022-11-28T15:26:44.847Z,100520.53
2022-11-28T15:28:49.555Z,100515.19
2022-11-28T15:30:54.422Z,100517.69
2022-11-28T15:33:03.371Z,100516.84
2022-11-28T15:35:12.337Z,100521.03
2022-11-28T15:37:18.328Z,100512.31
2022-11-28T15:39:29.273Z,100517.59
2022-11-28T15:41:32.789Z,100517.53
2022-11-28T15:43:39.760Z,100523.81
2022-11-28T15:45:43.407Z,100519.53
2022-11-28T15:47:49.175Z,100525.16
2022-11-28T15:50:05.456Z,100531.41
2022-11-28T15:52:18.412Z,100536.72
2022-11-28T15:54:43.852Z,100529.03
2022-11-28T15:56:57.370Z,100528.31
2022-11-28T15:59:02.217Z,100527.59
2022-11-28T16:01:10.606Z,100537.16
2022-11-28T16:03:17.064Z,100534.66
2022-11-28T16:05:22.701Z,100542.44
2022-11-28T16:07:26.245Z,100539.81
2022-11-28T16:09:33.933Z,100536.13
2022-11-28T16:11:37.733Z,100500.00
2022-11-28T16:13:43.150Z,100539.34
2022-11-28T16:15:52.442Z,100549.03
2022-11-28T16:17:56.885Z,100544.47
2022-11-28T16:20:01.781Z,100550.31
2022-11-28T16:22:08.972Z,100543.13
2022-11-28T16:24:18.744Z,100548.72
2022-11-28T16:26:29.850Z,100565.50
2022-11-28T16:28:35.512Z,100553.47
2022-11-28T16:30:45.508Z,100557.09
2022-11-28T16:32:51.464Z,100541.47
2022-11-28T16:34:57.190Z,100551.19
2022-11-28T16:37:00.556Z,100552.72
2022-11-28T16:39:13.109Z,100550.00
2022-11-28T16:41:18.652Z,100546.44
2022-11-28T16:43:25.767Z,100533.13
2022-11-28T16:45:32.479Z,100555.63
2022-11-28T16:47:37.075Z,100558.81
2022-11-28T16:49:43.970Z,100557.81
2022-11-28T16:51:47.726Z,100556.09
2022-11-28T16:53:53.236Z,100556.09
2022-11-28T16:55:56.640Z,100554.19
2022-11-28T16:58:07.017Z,100558.56
2022-11-28T17:00:11.294Z,100563.13
2022-11-28T17:02:17.243Z,100562.22
2022-11-28T17:04:22.495Z,100560.00
2022-11-28T17:06:33.887Z,100567.78
2022-11-28T17:08:37.239Z,100558.22
2022-11-28T17:10:40.737Z,100567.13
2022-11-28T17:12:44.259Z,100567.31
2022-11-28T17:14:47.656Z,100562.34
2022-11-28T17:16:51.688Z,100570.97
2022-11-28T17:18:55.140Z,100575.38
2022-11-28T17:20:59.872Z,100578.91
2022-11-28T17:23:05.656Z,100584.22
2022-11-28T17:25:15.056Z,100580.84
2022-11-28T17:27:18.679Z,100580.75
2022-11-28T17:29:22.699Z,100583.88
2022-11-28T17:31:26.265Z,100588.88
2022-11-28T17:33:29.692Z,100589.38
2022-11-28T17:35:40.130Z,100576.69
2022-11-28T17:37:43.557Z,100583.78
2022-11-28T17:40:02.154Z,100602.09
2022-11-28T17:42:06.502Z,100603.94
2022-11-28T17:44:16.584Z,100568.09
2022-11-28T17:46:21.443Z,100590.31
2022-11-28T17:48:24.998Z,100591.19
2022-11-28T17:50:29.495Z,100598.09
2022-11-28T17:52:33.934Z,100590.00
2022-11-28T17:54:37.325Z,100596.78
2022-11-28T17:56:42.002Z,100591.50
2022-11-28T17:58:46.501Z,100600.25
2022-11-28T18:00:50.160Z,100595.78
2022-11-28T18:02:53.619Z,100601.00
2022-11-28T18:04:56.943Z,100596.00
2022-11-28T18:07:00.329Z,100606.38
2022-11-28T18:09:11.421Z,100605.47
2022-11-28T18:11:17.134Z,100611.59
2022-11-28T18:13:21.865Z,100602.00
2022-11-28T18:15:25.262Z,100605.75
2022-11-28T18:17:29.200Z,100605.06
2022-11-28T18:19:32.910Z,100612.06
2022-11-28T18:21:36.470Z,100609.50
2022-11-28T18:23:40.781Z,100612.06
2022-11-28T18:25:46.204Z,100620.69
2022-11-28T18:27:49.702Z,100611.94
2022-11-28T18:29:55.034Z,100617.16
2022-11-28T18:32:00.397Z,100614.44
2022-11-28T18:34:06.530Z,100610.38
2022-11-28T18:36:12.224Z,100612.97
2022-11-28T18:38:15.582Z,100618.28
2022-11-28T18:40:19.260Z,100607.78
2022-11-28T18:42:22.640Z,100612.09
2022-11-28T18:44:26.193Z,100620.06
2022-11-28T18:46:32.472Z,100613.38
2022-11-28T18:48:38.682Z,100608.91
2022-11-28T18:50:42.080Z,100616.84
2022-11-28T18:52:48.302Z,100622.34
2022-11-28T18:54:52.658Z,100625.69
2022-11-28T18:56:56.136Z,100624.09
2022-11-28T18:59:00.294Z,100626.69
2022-11-28T19:01:10.142Z,100632.78
2022-11-28T19:03:15.542Z,100631.16
2022-11-28T19:05:19.038Z,100632.84
2022-11-28T19:07:23.371Z,100635.97
2022-11-28T19:09:26.665Z,100640.16
2022-11-28T19:11:30.440Z,100638.13
2022-11-28T19:13:33.908Z,100642.38
2022-11-28T19:15:40.200Z,100637.19
2022-11-28T19:17:43.557Z,100633.84
2022-11-28T19:19:48.282Z,100639.06
2022-11-28T19:21:51.841Z,100634.84
2022-11-28T19:23:55.869Z,100642.88
2022-11-28T19:26:02.184Z,100630.84
2022-11-28T19:28:06.623Z,100631.88
2022-11-28T19:30:10.528Z,100630.44
2022-11-28T19:32:14.085Z,100635.69
2022-11-28T19:34:19.528Z,100580.69
2022-11-28T19:36:24.394Z,100640.47
2022-11-28T19:38:27.697Z,100636.88
2022-11-28T19:40:31.164Z,100643.78
2022-11-28T19:42:35.302Z,100594.28
2022-11-28T19:44:38.663Z,100643.88
2022-11-28T19:46:42.678Z,100652.47
2022-11-28T19:48:46.199Z,100650.75
2022-11-28T19:50:50.360Z,100631.56
2022-11-28T19:52:55.296Z,100655.63
2022-11-28T19:54:58.981Z,100633.75
2022-11-28T19:57:02.534Z,100654.72
2022-11-28T19:59:06.053Z,100662.44
2022-11-28T20:01:13.351Z,100658.22
2022-11-28T20:03:17.408Z,100661.69
2022-11-28T20:05:20.870Z,100659.84
2022-11-28T20:07:24.594Z,100670.94
2022-11-28T20:09:29.365Z,100667.94
2022-11-28T20:11:34.825Z,100664.13
2022-11-28T20:13:38.526Z,100672.81
2022-11-28T20:15:42.112Z,100680.63
2022-11-28T20:17:45.820Z,100673.03
2022-11-28T20:19:49.144Z,100669.03
2022-11-28T20:21:52.474Z,100678.69
2022-11-28T20:23:59.551Z,100670.25
2022-11-28T20:26:06.079Z,100678.88
2022-11-28T20:28:09.879Z,100688.56
2022-11-28T20:30:15.326Z,100675.47
2022-11-28T20:32:19.133Z,100686.13
2022-11-28T20:34:23.751Z,100674.94
2022-11-28T20:36:28.797Z,100677.75
2022-11-28T20:38:32.205Z,100682.94
2022-11-28T20:40:35.670Z,100679.53
2022-11-28T20:42:40.379Z,100685.63
2022-11-28T20:44:43.737Z,100689.25
2022-11-28T20:46:50.300Z,100684.47
2022-11-28T20:48:54.231Z,100687.72
2022-11-28T20:50:57.627Z,100695.34
2022-11-28T20:53:01.047Z,100688.28
2022-11-28T20:55:04.502Z,100693.34
2022-11-28T20:57:21.251Z,100694.09
2022-11-28T20:59:26.705Z,100695.81
2022-11-28T21:01:33.146Z,100699.22
2022-11-28T21:03:37.018Z,100693.25
2022-11-28T21:05:40.455Z,100696.91
2022-11-28T21:07:43.795Z,100693.84
2022-11-28T21:09:47.276Z,100699.88
2022-11-28T21:11:57.389Z,100698.91
2022-11-28T21:14:02.523Z,100694.63
2022-11-28T21:16:08.955Z,100693.06
2022-11-28T21:18:12.722Z,100673.78
2022-11-28T21:20:16.079Z,100698.94
2022-11-28T21:22:19.426Z,100698.28
2022-11-28T21:24:22.734Z,100701.13
2022-11-28T21:26:30.294Z,100707.34
2022-11-28T21:28:35.311Z,100704.03
2022-11-28T21:30:41.612Z,100707.63
2022-11-28T21:32:47.463Z,100702.41
2022-11-28T21:34:50.798Z,100700.81
2022-11-28T21:36:55.115Z,100699.03
2022-11-28T21:39:00.223Z,100691.84
2022-11-28T21:41:05.036Z,100699.66
2022-11-28T21:43:08.779Z,100707.66
2022-11-28T21:45:12.421Z,100708.72
2022-11-28T21:47:16.155Z,100705.25
2022-11-28T21:49:20.934Z,100712.34
2022-11-28T21:51:28.334Z,100712.94
2022-11-28T21:53:34.094Z,100702.16
2022-11-28T21:55:37.895Z,100712.47
2022-11-28T21:57:42.835Z,100712.44
2022-11-28T21:59:46.499Z,100708.16
2022-11-28T22:01:50.200Z,100711.03
2022-11-28T22:04:01.944Z,100715.94
2022-11-28T22:06:09.999Z,100717.47
2022-11-28T22:08:14.048Z,100721.59
2022-11-28T22:10:20.344Z,100703.84
2022-11-28T22:12:23.741Z,100717.13
2022-11-28T22:14:44.709Z,100715.47
2022-11-28T22:16:48.134Z,100720.72
2022-11-28T22:18:53.034Z,100715.56
2022-11-28T22:21:02.120Z,100724.28
2022-11-28T22:23:06.941Z,100707.38
2022-11-28T22:25:10.532Z,100722.53
2022-11-28T22:27:13.950Z,100722.56
2022-11-28T22:29:17.333Z,100725.03
2022-11-28T22:31:20.684Z,100720.66
2022-11-28T22:33:24.072Z,100732.16
2022-11-28T22:35:27.542Z,100728.94
2022-11-28T22:37:30.872Z,100688.44
2022-11-28T22:39:35.664Z,100729.16
2022-11-28T22:41:39.361Z,100722.25
2022-11-28T22:43:43.442Z,100724.97
2022-11-28T22:45:46.806Z,100724.94
2022-11-28T22:47:50.290Z,100728.44
2022-11-28T22:49:53.648Z,100730.28
2022-11-28T22:51:56.970Z,100734.75
2022-11-28T22:54:02.197Z,100738.03
2022-11-28T22:56:09.836Z,100725.06
2022-11-28T22:58:13.407Z,100734.81
2022-11-28T23:00:17.688Z,100741.78
2022-11-28T23:02:21.328Z,100738.28
2022-11-28T23:04:24.801Z,100742.53
2022-11-28T23:06:30.282Z,100747.63
2022-11-28T23:08:34.121Z,100743.28
2022-11-28T23:10:38.612Z,100745.88
2022-11-28T23:12:43.679Z,100741.56
2022-11-28T23:14:47.262Z,100744.19
2022-11-28T23:16:50.776Z,100744.13
2022-11-28T23:18:56.165Z,100751.06
2022-11-28T23:20:59.535Z,100748.44
2022-11-28T23:23:02.944Z,100742.25
2022-11-28T23:25:07.781Z,100750.88
2022-11-28T23:27:11.154Z,100741.09
2022-11-28T23:29:17.575Z,100748.88
2022-11-28T23:31:23.191Z,100747.88
2022-11-28T23:33:26.590Z,100752.06
2022-11-28T23:35:30.072Z,100699.84
2022-11-28T23:37:37.497Z,100693.81
2022-11-28T23:39:40.938Z,100755.28
2022-11-28T23:41:45.676Z,100744.78
2022-11-28T23:43:49.149Z,100730.94
2022-11-28T23:45:53.861Z,100745.16
2022-11-28T23:47:58.317Z,100752.66
2022-11-28T23:50:01.896Z,100757.44
2022-11-28T23:52:05.433Z,100759.94
2022-11-28T23:54:09.566Z,100755.53
2022-11-28T23:56:15.534Z,100753.59
2022-11-28T23:58:19.556Z,100741.59
